Terminal Aerodrome Forecast
Issued by NWS

Home | Current Version | Previous Version | Text Only | Print | Product List | Glossary On
Versions: 1 2 3 4 5 6 7 8 9 10 11 12 13 14 15 16 17
000
FTUS43 KMQT 240541
TAFCMX
TAF
KCMX 240541Z 2406/2506 28010KT P6SM OVC030
     FM241000 27005KT P6SM FEW250
     FM241700 18003KT P6SM SCT250
     FM242200 10008KT P6SM BKN200
     FM250200 10011G20KT P6SM BKN110
     FM250400 10014G25KT 5SM -SN OVC040=

USA.gov is the U.S. government's official web portal to all federal, state and local government web resources and services.